createdAt,value
2019-02-26T00:00:58.688Z,101954.40
2019-02-26T00:03:38.778Z,101953.57
2019-02-26T00:06:20.562Z,101954.73
2019-02-26T00:09:03.196Z,101955.16
2019-02-26T00:11:43.413Z,101952.17
2019-02-26T00:14:24.766Z,101948.47
2019-02-26T00:17:08.663Z,101945.02
2019-02-26T00:19:47.259Z,101937.87
2019-02-26T00:22:26.510Z,101935.67
2019-02-26T00:25:10.449Z,101936.36
2019-02-26T00:27:52.432Z,101940.09
2019-02-26T00:30:35.702Z,101945.00
2019-02-26T00:33:16.808Z,101941.90
2019-02-26T00:35:56.048Z,101942.75
2019-02-26T00:38:37.551Z,101933.62
2019-02-26T00:41:20.302Z,101929.22
2019-02-26T00:43:59.855Z,101927.29
2019-02-26T00:46:39.885Z,101930.78
2019-02-26T00:49:21.461Z,101926.86
2019-02-26T00:52:00.458Z,101924.06
2019-02-26T00:54:41.015Z,101928.33
2019-02-26T00:57:20.345Z,101937.91
2019-02-26T01:00:00.745Z,101940.48
2019-02-26T01:02:40.378Z,101929.20
2019-02-26T01:05:19.843Z,101935.20
2019-02-26T01:07:59.124Z,101931.08
2019-02-26T01:10:39.853Z,101928.52
2019-02-26T01:13:20.654Z,101931.33
2019-02-26T01:16:00.816Z,101930.07
2019-02-26T01:18:42.251Z,101927.84
2019-02-26T01:21:26.228Z,101911.29
2019-02-26T01:24:04.726Z,101902.78
2019-02-26T01:26:45.088Z,101899.63
2019-02-26T01:29:27.635Z,101896.54
2019-02-26T01:32:10.981Z,101887.14
2019-02-26T01:34:49.540Z,101885.22
2019-02-26T01:37:30.023Z,101879.59
2019-02-26T01:40:13.742Z,101877.82
2019-02-26T01:42:55.617Z,101877.22
2019-02-26T01:45:34.851Z,101871.45
2019-02-26T01:48:16.672Z,101871.76
2019-02-26T01:50:57.440Z,101864.50
2019-02-26T01:53:37.556Z,101858.16
2019-02-26T01:56:17.729Z,101854.78
2019-02-26T01:59:02.101Z,101841.41
2019-02-26T02:01:42.066Z,101846.50
2019-02-26T02:04:20.793Z,101850.23
2019-02-26T02:07:01.403Z,101857.02
2019-02-26T02:09:46.563Z,101848.04
2019-02-26T03:55:06.786Z,101854.92
2019-02-26T03:57:47.615Z,101859.03
2019-02-26T04:00:28.363Z,101867.84
2019-02-26T04:03:09.232Z,101866.50
2019-02-26T04:06:02.918Z,101869.49
2019-02-26T04:08:51.080Z,101872.18
2019-02-26T04:11:31.089Z,101881.08
2019-02-26T04:14:12.642Z,101877.23
2019-02-26T04:16:55.228Z,101864.84
2019-02-26T04:19:34.870Z,101867.15
2019-02-26T04:22:28.128Z,101860.37
2019-02-26T04:25:57.631Z,101861.45
2019-02-26T04:28:57.157Z,101865.31
2019-02-26T04:32:23.254Z,101850.72
2019-02-26T04:35:36.973Z,101837.67
2019-02-26T04:39:02.274Z,101823.33
2019-02-26T04:42:19.860Z,101824.59
2019-02-26T04:45:49.096Z,101823.14
2019-02-26T04:48:34.371Z,101833.96
2019-02-26T04:51:14.077Z,101844.36
2019-02-26T04:53:56.139Z,101839.97
2019-02-26T04:56:40.116Z,101832.45
2019-02-26T04:59:19.111Z,101844.90
2019-02-26T05:02:01.663Z,101868.24
2019-02-26T05:04:42.102Z,101874.39
2019-02-26T05:07:21.694Z,101872.22
2019-02-26T05:10:02.670Z,101866.94
2019-02-26T05:12:42.528Z,101855.30
2019-02-26T05:15:26.519Z,101849.28
2019-02-26T05:18:05.198Z,101853.31
2019-02-26T05:20:48.445Z,101846.92
2019-02-26T05:23:31.101Z,101834.55
2019-02-26T05:26:11.555Z,101834.03
2019-02-26T05:28:51.675Z,101833.09
2019-02-26T05:31:33.159Z,101827.16
2019-02-26T05:34:14.755Z,101825.19
2019-02-26T05:36:53.654Z,101815.90
2019-02-26T05:39:33.450Z,101810.11
2019-02-26T05:42:12.992Z,101817.45
2019-02-26T05:44:54.625Z,101807.83
2019-02-26T05:47:33.337Z,101795.40
2019-02-26T05:50:16.311Z,101793.25
2019-02-26T05:52:57.992Z,101795.81
2019-02-26T05:55:36.648Z,101797.55
2019-02-26T05:58:19.349Z,101799.27
2019-02-26T06:00:58.369Z,101807.74
2019-02-26T06:03:39.063Z,101812.14
2019-02-26T06:06:19.794Z,101819.17
2019-02-26T06:09:02.281Z,101813.91
2019-02-26T06:11:49.355Z,101814.16
2019-02-26T06:14:27.659Z,101817.09
2019-02-26T06:17:09.706Z,101818.85
2019-02-26T06:19:50.574Z,101824.55
2019-02-26T06:22:31.809Z,101822.25
2019-02-26T06:25:18.355Z,101831.53
2019-02-26T06:27:54.962Z,101837.04
2019-02-26T06:30:35.115Z,101852.60
2019-02-26T06:33:16.377Z,101845.22
2019-02-26T06:35:59.878Z,101845.10
2019-02-26T06:38:39.456Z,101841.31
2019-02-26T06:41:19.749Z,101838.48
2019-02-26T06:43:59.562Z,101838.05
2019-02-26T06:46:39.901Z,101840.36
2019-02-26T06:49:21.971Z,101842.80
2019-02-26T06:52:01.399Z,101840.86
2019-02-26T06:54:41.239Z,101852.49
2019-02-26T06:57:21.172Z,101849.11
2019-02-26T07:00:02.269Z,101842.73
2019-02-26T07:02:46.169Z,101838.25
2019-02-26T07:05:25.167Z,101833.66
2019-02-26T07:08:06.671Z,101837.37
2019-02-26T07:10:46.591Z,101827.97
2019-02-26T07:13:26.596Z,101824.48
2019-02-26T07:16:06.434Z,101814.43
2019-02-26T07:18:46.273Z,101808.88
2019-02-26T07:21:26.339Z,101807.27
2019-02-26T07:24:07.701Z,101802.56
2019-02-26T07:26:49.184Z,101804.41
2019-02-26T07:29:32.864Z,101803.26
2019-02-26T07:32:12.331Z,101801.16
2019-02-26T07:34:53.361Z,101794.50
2019-02-26T07:37:36.311Z,101802.58
2019-02-26T07:40:18.537Z,101799.19
2019-02-26T07:42:59.859Z,101806.41
2019-02-26T07:45:39.994Z,101810.25
2019-02-26T07:48:23.852Z,101811.02
2019-02-26T07:51:06.887Z,101817.20
2019-02-26T07:53:51.667Z,101812.09
2019-02-26T07:56:32.746Z,101813.81
2019-02-26T07:59:13.093Z,101814.05
2019-02-26T08:01:53.538Z,101805.19
2019-02-26T08:04:36.343Z,101807.02
2019-02-26T08:07:16.597Z,101800.52
2019-02-26T08:09:56.414Z,101809.92
2019-02-26T08:12:38.080Z,101819.98
2019-02-26T08:15:17.797Z,101813.47
2019-02-26T08:18:00.582Z,101815.08
2019-02-26T08:20:40.230Z,101820.30
2019-02-26T08:23:21.657Z,101824.23
2019-02-26T08:26:18.085Z,101832.85
2019-02-26T08:28:57.454Z,101825.73
2019-02-26T08:31:36.947Z,101832.71
2019-02-26T08:34:16.661Z,101834.52
2019-02-26T08:36:57.237Z,101839.34
2019-02-26T08:39:38.015Z,101828.73
2019-02-26T08:42:21.321Z,101826.19
2019-02-26T08:45:00.778Z,101829.08
2019-02-26T08:47:42.171Z,101833.92
2019-02-26T08:50:21.994Z,101831.30
2019-02-26T08:53:01.599Z,101843.66
2019-02-26T08:55:41.633Z,101849.66
2019-02-26T08:58:21.074Z,101841.66
2019-02-26T09:01:00.558Z,101852.69
2019-02-26T09:03:41.025Z,101844.53
2019-02-26T09:06:20.680Z,101847.55
2019-02-26T09:09:02.689Z,101845.56
2019-02-26T09:11:44.167Z,101829.48
2019-02-26T09:14:25.202Z,101831.70
2019-02-26T09:17:05.180Z,106156.93
2019-02-26T09:19:44.815Z,106156.93
2019-02-26T09:22:26.665Z,106156.93
2019-02-26T09:25:07.317Z,106156.93
2019-02-26T09:27:47.058Z,106156.93
2019-02-26T09:30:28.193Z,106156.93
2019-02-26T09:33:09.061Z,106156.93
2019-02-26T09:35:50.298Z,106156.93
2019-02-26T09:38:31.323Z,106156.93
2019-02-26T09:41:11.857Z,106156.93
2019-02-26T09:43:52.493Z,106156.93
2019-02-26T09:46:35.811Z,106156.93
2019-02-26T09:49:13.272Z,106156.93
2019-02-26T09:51:54.493Z,106156.93
2019-02-26T09:54:37.749Z,106156.93
2019-02-26T09:57:17.581Z,106156.93
2019-02-26T10:00:00.050Z,106156.93
2019-02-26T10:02:40.131Z,106156.93
2019-02-26T10:05:20.689Z,106156.93
2019-02-26T10:08:03.480Z,106156.93
2019-02-26T10:10:41.985Z,106156.93
2019-02-26T10:13:23.269Z,106156.93
2019-02-26T10:16:04.470Z,106156.93
2019-02-26T10:18:45.012Z,106156.93
2019-02-26T10:21:25.637Z,106156.93
2019-02-26T10:24:05.170Z,106156.93
2019-02-26T10:26:44.987Z,106156.93
2019-02-26T10:29:24.498Z,106156.93
2019-02-26T10:32:04.214Z,106156.93
2019-02-26T10:34:43.958Z,106156.93
2019-02-26T10:37:23.766Z,106156.93
2019-02-26T10:40:03.606Z,106156.93
2019-02-26T10:42:46.106Z,106156.93
2019-02-26T10:45:26.835Z,106156.93
2019-02-26T10:48:08.832Z,106156.93
2019-02-26T10:50:51.763Z,106156.93
2019-02-26T10:53:30.382Z,106156.93
2019-02-26T10:56:10.055Z,106156.93
2019-02-26T10:58:49.587Z,106156.93
2019-02-26T11:01:31.036Z,106156.93
2019-02-26T11:04:10.619Z,106156.93
2019-02-26T11:06:50.132Z,106156.93
2019-02-26T11:09:31.917Z,106156.93
2019-02-26T11:12:11.315Z,106156.93
2019-02-26T11:14:51.452Z,106156.93
2019-02-26T11:17:39.507Z,106156.93
2019-02-26T11:20:22.338Z,106156.93
2019-02-26T11:23:04.146Z,106156.93
2019-02-26T11:25:45.037Z,106156.93
2019-02-26T11:28:29.735Z,106156.93
2019-02-26T11:31:09.458Z,106156.93
2019-02-26T11:33:56.389Z,106156.93
2019-02-26T11:36:36.543Z,106156.93
2019-02-26T11:39:16.528Z,106156.93
2019-02-26T11:41:58.653Z,106156.93
2019-02-26T11:44:37.827Z,106156.93
2019-02-26T11:47:18.414Z,106156.93
2019-02-26T11:49:59.694Z,106156.93
2019-02-26T11:52:40.141Z,106156.93
2019-02-26T11:55:21.094Z,106156.93
2019-02-26T11:58:05.613Z,106156.93
2019-02-26T12:00:50.622Z,106156.93
2019-02-26T12:03:34.149Z,106156.93
2019-02-26T12:06:15.239Z,106156.93
2019-02-26T12:08:54.947Z,106156.93
2019-02-26T12:11:37.699Z,106156.93
2019-02-26T12:14:19.482Z,106156.93
2019-02-26T12:17:02.631Z,106156.93
2019-02-26T12:19:42.239Z,106156.93
2019-02-26T12:22:22.755Z,106156.93
2019-02-26T12:25:05.747Z,106156.93
2019-02-26T12:27:45.727Z,106156.93
2019-02-26T12:30:26.469Z,106156.93
2019-02-26T12:33:07.703Z,106156.93
2019-02-26T12:35:47.368Z,106156.93
2019-02-26T12:38:27.122Z,106156.93
2019-02-26T12:41:11.584Z,106156.93
2019-02-26T12:43:50.345Z,106156.93
2019-02-26T12:46:31.086Z,106156.93
2019-02-26T12:49:12.647Z,106156.93
2019-02-26T12:51:53.945Z,106156.93
2019-02-26T12:54:37.816Z,106156.93
2019-02-26T12:57:19.093Z,106156.93
2019-02-26T12:59:57.616Z,106156.93
2019-02-26T13:02:40.007Z,106156.93
2019-02-26T13:05:23.044Z,106156.93
2019-02-26T13:08:03.288Z,106156.93
2019-02-26T13:10:49.718Z,106156.93
2019-02-26T13:13:32.265Z,106156.93
2019-02-26T13:16:13.019Z,106156.93
2019-02-26T13:18:58.605Z,106156.93
2019-02-26T13:21:35.873Z,106156.93
2019-02-26T13:24:17.911Z,106156.93
2019-02-26T13:26:59.572Z,106156.93
2019-02-26T13:29:47.582Z,106156.93
2019-02-26T13:32:25.916Z,106156.93
2019-02-26T13:35:07.390Z,106156.93
2019-02-26T13:37:45.020Z,106156.93
2019-02-26T13:40:24.936Z,106156.93
2019-02-26T13:45:46.471Z,106156.93
2019-02-26T13:48:26.360Z,106156.93
2019-02-26T13:51:06.195Z,106156.93
2019-02-26T13:53:49.466Z,106156.93
2019-02-26T13:56:29.212Z,106156.93
2019-02-26T13:59:10.520Z,106156.93
2019-02-26T14:01:51.704Z,106156.93
2019-02-26T14:04:31.609Z,106156.93
2019-02-26T14:07:11.864Z,106156.93
2019-02-26T14:09:53.023Z,106156.93
2019-02-26T14:12:32.935Z,106156.93
2019-02-26T14:15:17.415Z,106156.93
2019-02-26T14:17:56.809Z,106156.93
2019-02-26T14:20:36.831Z,106156.93
2019-02-26T14:23:16.335Z,106156.93
2019-02-26T14:25:57.323Z,106156.93
2019-02-26T14:28:37.155Z,106156.93
2019-02-26T14:31:16.713Z,106156.93
2019-02-26T14:33:56.283Z,106156.93
2019-02-26T14:36:38.113Z,106156.93
2019-02-26T14:39:17.953Z,106156.93
2019-02-26T14:42:00.624Z,106156.93
2019-02-26T14:44:42.353Z,106156.93
2019-02-26T14:47:22.300Z,106156.93
2019-02-26T14:50:01.698Z,106156.93
2019-02-26T14:52:41.754Z,106156.93
2019-02-26T14:55:22.851Z,106156.93
2019-02-26T14:58:05.841Z,106156.93
2019-02-26T15:00:57.163Z,106156.93
2019-02-26T15:03:29.008Z,106156.93
2019-02-26T15:06:09.079Z,106156.93
2019-02-26T15:08:48.907Z,106156.93
2019-02-26T15:11:40.781Z,106156.93
2019-02-26T15:14:21.516Z,106156.93
2019-02-26T15:17:02.088Z,106156.93
2019-02-26T15:19:49.587Z,106156.93
2019-02-26T15:22:23.910Z,106156.93
2019-02-26T15:25:04.391Z,106156.93
2019-02-26T15:27:44.603Z,106156.93
2019-02-26T15:30:24.940Z,106156.93
2019-02-26T15:33:10.968Z,106156.93
2019-02-26T15:35:46.956Z,106156.93
2019-02-26T15:38:27.619Z,106156.93
2019-02-26T15:41:08.251Z,106156.93
2019-02-26T15:43:48.236Z,106156.93
2019-02-26T15:46:28.642Z,106156.93
2019-02-26T15:49:13.578Z,106156.93
2019-02-26T15:51:53.968Z,106156.93
2019-02-26T15:54:35.227Z,106156.93
2019-02-26T15:57:16.228Z,106156.93
2019-02-26T15:59:56.082Z,106156.93
2019-02-26T16:02:36.877Z,106156.93
2019-02-26T16:05:17.263Z,106156.93
2019-02-26T16:07:56.976Z,106156.93
2019-02-26T16:10:36.823Z,106156.93
2019-02-26T16:13:16.657Z,106156.93
2019-02-26T16:15:56.572Z,106156.93
2019-02-26T16:18:36.292Z,106156.93
2019-02-26T16:21:18.678Z,106156.93
2019-02-26T16:23:58.036Z,106156.93
2019-02-26T16:26:38.482Z,106156.93
2019-02-26T16:29:20.089Z,106156.93
2019-02-26T16:32:00.023Z,106156.93
2019-02-26T16:34:39.768Z,106156.93
2019-02-26T16:37:19.946Z,106156.93
2019-02-26T16:39:59.618Z,106156.93
2019-02-26T16:42:39.762Z,106156.93
2019-02-26T16:45:21.455Z,106156.93
2019-02-26T16:48:01.456Z,106156.93
2019-02-26T16:50:41.171Z,106156.93
2019-02-26T16:53:23.020Z,106156.93
2019-02-26T16:56:02.920Z,106156.93
2019-02-26T16:58:42.832Z,106156.93
2019-02-26T17:01:22.740Z,106156.93
2019-02-26T17:04:03.117Z,106156.93
2019-02-26T17:06:43.134Z,106156.93
2019-02-26T17:09:23.400Z,106156.93
2019-02-26T17:12:03.400Z,106156.93
2019-02-26T17:14:43.555Z,106156.93
2019-02-26T17:17:23.268Z,106156.93
2019-02-26T17:20:03.040Z,106156.93
2019-02-26T17:22:45.013Z,106156.93
2019-02-26T17:25:28.873Z,106156.93
2019-02-26T17:28:09.464Z,106156.93
2019-02-26T17:30:53.065Z,106156.93
2019-02-26T17:33:33.009Z,106156.93
2019-02-26T17:36:13.134Z,106156.93
2019-02-26T17:38:53.059Z,106156.93
2019-02-26T17:41:33.111Z,106156.93
2019-02-26T17:44:12.915Z,106156.93
2019-02-26T17:46:55.191Z,106156.93
2019-02-26T17:49:36.279Z,106156.93
2019-02-26T17:52:17.034Z,106156.93
2019-02-26T17:54:56.875Z,106156.93
2019-02-26T17:57:39.183Z,106156.93
2019-02-26T18:00:21.594Z,106156.93
2019-02-26T18:03:06.389Z,106156.93
2019-02-26T18:05:51.285Z,106156.93
2019-02-26T18:08:25.680Z,106156.93
2019-02-26T18:11:05.611Z,106156.93
2019-02-26T18:13:45.858Z,106156.93
2019-02-26T18:16:25.891Z,106156.93
2019-02-26T18:19:12.130Z,106156.93
2019-02-26T18:21:51.741Z,106156.93
2019-02-26T18:24:32.928Z,106156.93
2019-02-26T18:27:12.856Z,106156.93
2019-02-26T18:29:53.930Z,106156.93
2019-02-26T18:32:33.802Z,106156.93
2019-02-26T18:35:14.085Z,106156.93
2019-02-26T18:37:55.508Z,106156.93
2019-02-26T18:40:35.791Z,106156.93
2019-02-26T18:43:15.760Z,106156.93
2019-02-26T18:45:56.157Z,106156.93
2019-02-26T18:48:36.290Z,106156.93
2019-02-26T18:51:16.404Z,106156.93
2019-02-26T18:53:56.250Z,106156.93
2019-02-26T18:56:38.697Z,106156.93
2019-02-26T18:59:21.244Z,106156.93
2019-02-26T19:02:03.524Z,106156.93
2019-02-26T19:04:43.609Z,106156.93
2019-02-26T19:07:23.815Z,106156.93
2019-02-26T19:10:03.841Z,106156.93
2019-02-26T19:12:44.227Z,106156.93
2019-02-26T19:15:25.191Z,106156.93
2019-02-26T19:18:05.594Z,106156.93
2019-02-26T19:20:48.848Z,106156.93
2019-02-26T19:23:31.447Z,106156.93
2019-02-26T19:26:13.515Z,106156.93
2019-02-26T19:28:53.714Z,106156.93
2019-02-26T19:31:33.842Z,106156.93
2019-02-26T19:34:13.957Z,106156.93
2019-02-26T19:36:53.731Z,106156.93
2019-02-26T19:39:34.287Z,106156.93
2019-02-26T19:42:17.374Z,106156.93
2019-02-26T19:44:59.099Z,106156.93
2019-02-26T19:47:39.028Z,106156.93
2019-02-26T19:50:19.082Z,106156.93
2019-02-26T19:53:02.271Z,106156.93
2019-02-26T19:55:41.819Z,106156.93
2019-02-26T19:58:21.690Z,106156.93
2019-02-26T20:01:01.655Z,106156.93
2019-02-26T20:03:42.765Z,106156.93
2019-02-26T20:06:23.576Z,106156.93
2019-02-26T20:09:06.527Z,106156.93
2019-02-26T20:11:48.758Z,106156.93
2019-02-26T20:14:28.974Z,106156.93
2019-02-26T20:17:14.694Z,106156.93
2019-02-26T20:19:52.766Z,106156.93
2019-02-26T20:22:41.246Z,106156.93
2019-02-26T20:25:21.220Z,106156.93
2019-02-26T20:28:05.385Z,106156.93
2019-02-26T20:30:42.922Z,106156.93
2019-02-26T20:33:24.292Z,106156.93
2019-02-26T20:36:04.053Z,106156.93
2019-02-26T20:38:44.411Z,106156.93
2019-02-26T20:41:24.276Z,106156.93
2019-02-26T20:44:05.326Z,106156.93
2019-02-26T20:46:45.534Z,106156.93
2019-02-26T20:49:28.447Z,106156.93
2019-02-26T20:52:12.451Z,106156.93
2019-02-26T20:54:54.499Z,106156.93
2019-02-26T20:57:37.727Z,106156.93
2019-02-26T21:00:18.849Z,106156.93
2019-02-26T21:02:58.849Z,106156.93
2019-02-26T21:05:44.639Z,106156.93
2019-02-26T21:08:24.851Z,106156.93
2019-02-26T21:11:04.695Z,106156.93
2019-02-26T21:13:47.093Z,106156.93
2019-02-26T21:16:27.106Z,106156.93
2019-02-26T21:19:06.983Z,106156.93
2019-02-26T21:21:49.108Z,106156.93
2019-02-26T21:24:31.935Z,106156.93
2019-02-26T21:27:12.347Z,106156.93
2019-02-26T21:29:52.537Z,106156.93
2019-02-26T21:32:32.985Z,106156.93
2019-02-26T21:35:13.139Z,106156.93
2019-02-26T21:37:53.459Z,106156.93
2019-02-26T21:40:33.279Z,106156.93
2019-02-26T21:43:13.320Z,106156.93
2019-02-26T21:45:53.232Z,106156.93
2019-02-26T21:48:36.547Z,106156.93
2019-02-26T21:51:14.545Z,106156.93
2019-02-26T21:53:57.734Z,106156.93
2019-02-26T21:56:37.804Z,106156.93
2019-02-26T21:59:19.637Z,106156.93
2019-02-26T22:02:03.794Z,106156.93
2019-02-26T22:04:43.995Z,106156.93
2019-02-26T22:07:24.018Z,106156.93
2019-02-26T22:10:07.094Z,106156.93
2019-02-26T22:12:46.101Z,106156.93
2019-02-26T22:15:25.970Z,106156.93
2019-02-26T22:18:05.913Z,106156.93
2019-02-26T22:20:47.522Z,106156.93
2019-02-26T22:23:29.298Z,106156.93
2019-02-26T22:26:10.369Z,106156.93
2019-02-26T22:28:53.395Z,106156.93
2019-02-26T22:31:32.969Z,106156.93
2019-02-26T22:34:12.956Z,106156.93
2019-02-26T22:36:54.693Z,106156.93
2019-02-26T22:39:35.441Z,106156.93
2019-02-26T22:42:16.928Z,106156.93
2019-02-26T22:44:56.810Z,106156.93
2019-02-26T22:47:40.225Z,106156.93
2019-02-26T22:50:18.327Z,106156.93
2019-02-26T22:52:58.408Z,106156.93
2019-02-26T22:55:38.287Z,106156.93
2019-02-26T22:58:18.057Z,106156.93
2019-02-26T23:01:30.459Z,106156.93
2019-02-26T23:04:11.131Z,106156.93
2019-02-26T23:06:51.058Z,106156.93
2019-02-26T23:09:33.673Z,106156.93
2019-02-26T23:12:13.315Z,106156.93
2019-02-26T23:14:53.647Z,106156.93
2019-02-26T23:17:33.522Z,106156.93
2019-02-26T23:20:13.240Z,106156.93
2019-02-26T23:22:55.594Z,106156.93
2019-02-26T23:25:36.067Z,106156.93
2019-02-26T23:28:21.994Z,106156.93
2019-02-26T23:31:01.473Z,106156.93
2019-02-26T23:33:41.816Z,106156.93
2019-02-26T23:36:22.117Z,106156.93
2019-02-26T23:39:01.429Z,106156.93
2019-02-26T23:41:42.449Z,106156.93
2019-02-26T23:44:21.888Z,106156.93
2019-02-26T23:47:02.054Z,106156.93
2019-02-26T23:49:42.148Z,106156.93
2019-02-26T23:52:22.019Z,106156.93
2019-02-26T23:55:01.251Z,106156.93
2019-02-26T23:57:41.588Z,106156.93
